首页
METAR-TAF:

METAR-TAF

机场 :

克里斯蒂亚诺·罗纳尔多机场

丰沙尔, 馬德拉群岛, 葡萄牙

纬度: 32-41-52N, 经度: 016-46-28W, 海拔: 59米

当前天气观测

该预报发布于39分钟前的23:30 UTC
风速3节,风向西转西南,在南转西南西之间变化
温度 20°C
湿度 83%
气压 1018 hPa
能见度10公里或以上
散云层高于1300英尺
散云层高于3000英尺

METAR: LPMA 192330Z 25003KT 200V280 9999 SCT013 SCT030 20/17 Q1018

时间: 01:09 (00:09 UTC)

预报

该预报发布于1小时和9分钟前的23:00 UTC
预报有效从20日的 00点(UTC)到 20日的 24点(UTC)
风速5节,风向多变
能见度10公里或以上
散云层高于1500英尺
散云层高于3000英尺
短暂存在
从 20日的 00点(UTC)到 20日的 12点(UTC)
多云层高于1300英尺
成为
从 20日的 16点(UTC)到 20日的 19点(UTC)
风速8节,风向

TAF: LPMA 192300Z 2000/2024 VRB05KT 9999 SCT015 SCT030 TEMPO 2000/2012 BKN013 BECMG 2016/2019 01008KT

超过4000个机场的气象观测和天气预报(METAR&TAF报告)。

可查询的气象台以黄色和红色小点在地图上表示。

将鼠标移到小点上方,可查看气象台名称。

然后点击查看天气观测和预报。

如需切换地图:点击带黑十字的绿色按钮放大地图;点击带横线的绿色按钮缩小地图;或者点击绿色箭头查看邻近地区的地图。


METAR-TAF: